createdAt,value
2018-10-01T00:01:23.186Z,100749.08
2018-10-01T00:03:51.751Z,100755.52
2018-10-01T00:06:20.357Z,100757.23
2018-10-01T00:08:49.231Z,100753.38
2018-10-01T00:11:17.884Z,100752.52
2018-10-01T00:13:46.444Z,100750.38
2018-10-01T00:16:15.123Z,100743.09
2018-10-01T00:18:43.687Z,100744.39
2018-10-01T00:21:17.595Z,100746.96
2018-10-01T00:23:46.144Z,100752.96
2018-10-01T00:26:14.733Z,100751.22
2018-10-01T00:28:43.346Z,100748.67
2018-10-01T00:31:12.007Z,100752.95
2018-10-01T00:33:40.560Z,100749.96
2018-10-01T00:36:09.152Z,100751.22
2018-10-01T00:38:37.773Z,100744.39
2018-10-01T00:41:06.499Z,100756.78
2018-10-01T00:43:41.497Z,100749.95
2018-10-01T00:46:10.196Z,100755.93
2018-10-01T00:48:38.839Z,100756.80
2018-10-01T00:51:07.404Z,100747.38
2018-10-01T00:53:36.149Z,100742.68
2018-10-01T00:56:04.751Z,100739.25
2018-10-01T00:58:33.332Z,100744.80
2018-10-01T01:01:01.982Z,100747.81
2018-10-01T01:03:30.687Z,100743.09
2018-10-01T01:05:59.306Z,100739.25
2018-10-01T01:08:27.916Z,100741.83
2018-10-01T01:10:56.541Z,100742.67
2018-10-01T01:13:25.245Z,100745.23
2018-10-01T01:15:53.794Z,100746.11
2018-10-01T01:18:22.489Z,100743.11
2018-10-01T01:20:51.204Z,100742.23
2018-10-01T01:23:19.950Z,100739.26
2018-10-01T01:25:48.498Z,100734.97
2018-10-01T01:28:17.125Z,100731.97
2018-10-01T01:30:45.676Z,100731.52
2018-10-01T01:33:14.192Z,100739.22
2018-10-01T01:35:42.825Z,100738.39
2018-10-01T01:38:11.443Z,100734.11
2018-10-01T01:40:40.115Z,100727.24
2018-10-01T01:43:08.712Z,100728.53
2018-10-01T01:45:37.253Z,100725.95
2018-10-01T01:48:05.938Z,100725.95
2018-10-01T01:50:34.698Z,100716.53
2018-10-01T01:53:07.429Z,100709.25
2018-10-01T01:55:35.971Z,100715.26
2018-10-01T01:58:04.725Z,100717.81
2018-10-01T02:00:33.339Z,100721.22
2018-10-01T02:03:02.015Z,100726.38
2018-10-01T02:05:30.793Z,100723.39
2018-10-01T02:07:59.482Z,100713.09
2018-10-01T02:10:28.039Z,100716.92
2018-10-01T02:12:56.751Z,100707.91
2018-10-01T02:15:25.313Z,100705.72
2018-10-01T02:17:54.058Z,100710.84
2018-10-01T02:20:22.793Z,100708.25
2018-10-01T02:22:51.503Z,100707.37
2018-10-01T02:25:20.199Z,100702.61
2018-10-01T02:27:48.771Z,100700.37
2018-10-01T02:30:17.435Z,100705.45
2018-10-01T02:32:45.993Z,100696.83
2018-10-01T02:35:14.696Z,100697.69
2018-10-01T02:37:43.316Z,100699.41
2018-10-01T02:40:12.671Z,100693.81
2018-10-01T02:42:41.293Z,100694.19
2018-10-01T02:45:09.851Z,100693.30
2018-10-01T02:47:38.347Z,100690.31
2018-10-01T02:50:07.268Z,100685.58
2018-10-01T02:53:42.707Z,100683.89
2018-10-01T02:56:11.344Z,100680.08
2018-10-01T02:58:39.937Z,100678.34
2018-10-01T03:01:08.641Z,100672.31
2018-10-01T03:03:37.315Z,100672.31
2018-10-01T03:06:06.033Z,100673.63
2018-10-01T03:08:34.640Z,100666.31
2018-10-01T03:11:04.281Z,100665.88
2018-10-01T03:13:33.104Z,100672.77
2018-10-01T03:16:02.614Z,100677.03
2018-10-01T03:18:31.450Z,100667.17
2018-10-01T03:21:00.031Z,100671.48
2018-10-01T03:23:28.806Z,100674.89
2018-10-01T03:25:57.439Z,100673.24
2018-10-01T03:28:26.138Z,100663.81
2018-10-01T03:30:55.039Z,100663.79
2018-10-01T03:33:23.688Z,100670.20
2018-10-01T03:35:52.493Z,100668.50
2018-10-01T03:38:21.115Z,100667.22
2018-10-01T03:40:49.895Z,100662.55
2018-10-01T03:43:18.764Z,100669.84
2018-10-01T03:45:47.302Z,100677.53
2018-10-01T03:48:15.916Z,100676.67
2018-10-01T03:50:44.449Z,100670.25
2018-10-01T03:53:13.062Z,100667.65
2018-10-01T03:55:41.763Z,100673.24
2018-10-01T03:58:10.512Z,100668.94
2018-10-01T04:00:39.143Z,100668.94
2018-10-01T04:03:07.799Z,100669.81
2018-10-01T04:05:36.460Z,100674.94
2018-10-01T04:08:05.074Z,100672.39
2018-10-01T04:10:33.672Z,100666.39
2018-10-01T04:13:02.789Z,100665.07
2018-10-01T04:15:31.391Z,100671.05
2018-10-01T04:17:59.916Z,100667.22
2018-10-01T04:20:28.508Z,100672.36
2018-10-01T04:22:57.102Z,100683.08
2018-10-01T04:25:25.700Z,100682.25
2018-10-01T04:27:54.390Z,100682.23
2018-10-01T04:30:23.039Z,100689.11
2018-10-01T04:32:51.682Z,100688.33
2018-10-01T04:35:26.627Z,100687.06
2018-10-01T04:37:55.229Z,100693.98
2018-10-01T04:40:23.889Z,100700.80
2018-10-01T04:42:52.812Z,100700.36
2018-10-01T04:45:21.459Z,100699.06
2018-10-01T04:47:54.051Z,100697.78
2018-10-01T04:50:22.702Z,100695.64
2018-10-01T04:52:51.189Z,100706.35
2018-10-01T04:55:19.697Z,100698.61
2018-10-01T04:57:48.249Z,100699.88
2018-10-01T05:00:16.895Z,100705.48
2018-10-01T05:02:45.494Z,100703.71
2018-10-01T05:05:14.126Z,100710.64
2018-10-01T05:07:42.689Z,100716.69
2018-10-01T05:10:11.885Z,100726.57
2018-10-01T05:12:40.455Z,100729.59
2018-10-01T05:15:08.963Z,100731.73
2018-10-01T05:17:37.625Z,100730.44
2018-10-01T05:20:06.436Z,100730.39
2018-10-01T05:22:35.015Z,100729.98
2018-10-01T05:25:03.982Z,100728.27
2018-10-01T05:27:32.709Z,100727.38
2018-10-01T05:30:02.530Z,100732.09
2018-10-01T05:32:31.134Z,100731.66
2018-10-01T05:34:59.684Z,100733.02
2018-10-01T05:37:28.370Z,100735.59
2018-10-01T05:39:57.327Z,100739.01
2018-10-01T05:42:26.060Z,100748.00
2018-10-01T05:44:54.826Z,100750.13
2018-10-01T05:47:23.360Z,100744.98
2018-10-01T05:49:51.898Z,100749.25
2018-10-01T05:52:20.522Z,100751.41
2018-10-01T05:54:49.064Z,100747.98
2018-10-01T05:57:17.591Z,100751.03
2018-10-01T05:59:46.097Z,100754.03
2018-10-01T06:02:14.745Z,100757.45
2018-10-01T06:04:43.704Z,100766.91
2018-10-01T06:07:12.294Z,100767.34
2018-10-01T06:09:40.923Z,100768.14
2018-10-01T06:12:09.512Z,100767.69
2018-10-01T06:14:38.102Z,100774.56
2018-10-01T06:17:06.665Z,100781.02
2018-10-01T06:19:35.301Z,100781.91
2018-10-01T06:22:03.941Z,100790.88
2018-10-01T06:24:32.610Z,100788.31
2018-10-01T06:27:01.558Z,100789.59
2018-10-01T06:29:30.190Z,100791.32
2018-10-01T06:31:58.848Z,100798.59
2018-10-01T06:34:27.405Z,100791.77
2018-10-01T06:36:56.357Z,100798.16
2018-10-01T06:39:25.100Z,100797.71
2018-10-01T06:41:53.846Z,100795.17
2018-10-01T06:44:22.403Z,100796.91
2018-10-01T06:46:51.163Z,100793.03
2018-10-01T06:49:19.660Z,100798.59
2018-10-01T06:51:48.258Z,100801.16
2018-10-01T06:54:16.839Z,100805.41
2018-10-01T06:56:45.513Z,100811.41
2018-10-01T06:59:14.253Z,100811.02
2018-10-01T07:01:42.808Z,100813.99
2018-10-01T07:04:11.371Z,100822.12
2018-10-01T07:06:39.866Z,100829.85
2018-10-01T07:09:10.087Z,100835.86
2018-10-01T07:11:39.430Z,100834.61
2018-10-01T07:14:07.886Z,100834.19
2018-10-01T07:16:36.581Z,100844.91
2018-10-01T07:19:05.320Z,100841.47
2018-10-01T07:21:33.919Z,100835.48
2018-10-01T07:24:02.997Z,100838.91
2018-10-01T07:26:31.727Z,100847.01
2018-10-01T07:29:00.775Z,100846.14
2018-10-01T07:31:29.343Z,100854.29
2018-10-01T07:33:59.173Z,100863.72
2018-10-01T07:36:27.799Z,100858.99
2018-10-01T07:38:56.841Z,100865.44
2018-10-01T07:41:25.482Z,100868.00
2018-10-01T07:43:54.068Z,100860.73
2018-10-01T07:46:22.663Z,100866.74
2018-10-01T07:48:51.176Z,100868.44
2018-10-01T07:51:19.784Z,100871.45
2018-10-01T07:53:48.450Z,100865.88
2018-10-01T07:56:17.047Z,100862.45
2018-10-01T07:58:46.071Z,100868.03
2018-10-01T08:01:14.744Z,100869.30
2018-10-01T08:03:43.436Z,100874.03
2018-10-01T08:06:12.137Z,100875.70
2018-10-01T08:08:40.929Z,100877.85
2018-10-01T08:11:09.578Z,100884.30
2018-10-01T08:13:38.102Z,100877.87
2018-10-01T08:16:06.991Z,100879.55
2018-10-01T08:18:35.560Z,100885.55
2018-10-01T08:21:04.940Z,100888.55
2018-10-01T08:23:33.623Z,100888.12
2018-10-01T08:26:02.665Z,100887.22
2018-10-01T08:28:31.285Z,100888.09
2018-10-01T08:30:59.984Z,100891.94
2018-10-01T08:33:28.653Z,100889.35
2018-10-01T08:35:57.408Z,100895.75
2018-10-01T08:38:26.030Z,100902.13
2018-10-01T08:40:54.637Z,100895.64
2018-10-01T08:43:23.773Z,100894.72
2018-10-01T08:45:52.555Z,100905.40
2018-10-01T08:48:22.065Z,100905.83
2018-10-01T08:50:58.115Z,100903.27
2018-10-01T08:53:38.025Z,100905.44
2018-10-01T08:56:06.717Z,100905.00
2018-10-01T08:58:35.412Z,100898.61
2018-10-01T09:01:04.335Z,100897.72
2018-10-01T09:03:33.118Z,100906.34
2018-10-01T09:06:02.415Z,100909.30
2018-10-01T09:08:31.016Z,100901.55
2018-10-01T09:10:59.601Z,100904.98
2018-10-01T09:13:28.160Z,100905.38
2018-10-01T09:15:56.740Z,100905.73
2018-10-01T09:18:25.455Z,100904.02
2018-10-01T09:20:54.146Z,100903.52
2018-10-01T09:23:22.991Z,100906.50
2018-10-01T09:25:51.635Z,100906.92
2018-10-01T09:28:20.317Z,100908.23
2018-10-01T09:30:48.956Z,100914.23
2018-10-01T09:33:17.600Z,100911.97
2018-10-01T09:35:46.275Z,100910.69
2018-10-01T09:38:14.928Z,100911.55
2018-10-01T09:40:43.548Z,100906.36
2018-10-01T09:43:12.129Z,100908.02
2018-10-01T09:45:40.721Z,100903.69
2018-10-01T09:48:09.434Z,100905.25
2018-10-01T09:50:37.998Z,100903.36
2018-10-01T09:53:06.696Z,100893.86
2018-10-01T09:55:35.309Z,100895.03
2018-10-01T09:58:04.040Z,100892.10
2018-10-01T10:00:40.341Z,100896.91
2018-10-01T10:03:09.745Z,100894.47
2018-10-01T10:05:38.428Z,100895.43
2018-10-01T10:08:07.250Z,100891.56
2018-10-01T10:10:35.816Z,100889.73
2018-10-01T10:13:04.483Z,100893.94
2018-10-01T10:15:33.089Z,100893.04
2018-10-01T10:18:01.704Z,100893.43
2018-10-01T10:20:30.347Z,100890.38
2018-10-01T10:22:59.126Z,100898.52
2018-10-01T10:25:27.742Z,100895.47
2018-10-01T10:27:56.441Z,100899.61
2018-10-01T10:30:25.003Z,100901.37
2018-10-01T10:32:53.707Z,100896.64
2018-10-01T10:35:22.437Z,100902.27
2018-10-01T10:37:51.226Z,100909.07
2018-10-01T10:40:19.950Z,100902.11
2018-10-01T10:42:48.569Z,100905.00
2018-10-01T10:45:17.424Z,100904.52
2018-10-01T10:47:46.371Z,100902.75
2018-10-01T10:50:15.041Z,100908.39
2018-10-01T10:52:44.018Z,100914.20
2018-10-01T10:55:12.869Z,100905.88
2018-10-01T10:57:41.635Z,100915.11
2018-10-01T11:00:10.656Z,100902.44
2018-10-01T11:02:39.515Z,100902.48
2018-10-01T11:05:08.204Z,100895.64
2018-10-01T11:07:36.876Z,100896.34
2018-10-01T11:10:05.535Z,100891.47
2018-10-01T11:12:34.220Z,100898.80
2018-10-01T11:15:03.044Z,100898.63
2018-10-01T11:17:31.702Z,100888.56
2018-10-01T11:20:00.400Z,100892.52
2018-10-01T11:22:28.943Z,100889.27
2018-10-01T11:24:58.052Z,100882.17
2018-10-01T11:27:26.844Z,100880.40
2018-10-01T11:29:55.885Z,100881.01
2018-10-01T11:32:24.606Z,100885.31
2018-10-01T11:34:53.631Z,100879.88
2018-10-01T11:37:22.450Z,100870.37
2018-10-01T11:39:51.159Z,100880.60
2018-10-01T11:42:19.902Z,100874.64
2018-10-01T11:44:48.718Z,100874.34
2018-10-01T11:47:17.417Z,100877.35
2018-10-01T11:49:46.061Z,100879.52
2018-10-01T11:52:14.612Z,100875.03
2018-10-01T11:54:43.271Z,100875.72
2018-10-01T11:57:11.952Z,100881.73
2018-10-01T11:59:40.615Z,100879.62
2018-10-01T12:02:09.422Z,100883.59
2018-10-01T12:04:38.114Z,100888.14
2018-10-01T12:07:07.012Z,100905.73
2018-10-01T12:09:35.784Z,100903.42
2018-10-01T12:12:04.354Z,100912.23
2018-10-01T12:14:32.986Z,100925.23
2018-10-01T12:17:01.721Z,100922.86
2018-10-01T12:19:30.452Z,100935.77
2018-10-01T12:21:59.094Z,100940.84
2018-10-01T12:24:27.742Z,100935.83
2018-10-01T12:26:56.518Z,100934.05
2018-10-01T12:29:25.243Z,100951.50
2018-10-01T12:31:53.892Z,100949.16
2018-10-01T12:34:22.472Z,100962.09
2018-10-01T12:36:51.052Z,100969.39
2018-10-01T12:39:19.738Z,100971.99
2018-10-01T12:41:48.424Z,100973.33
2018-10-01T12:44:17.200Z,100973.82
2018-10-01T12:46:45.864Z,100980.68
2018-10-01T12:49:14.625Z,100982.80
2018-10-01T12:51:43.449Z,100978.93
2018-10-01T12:54:12.160Z,100987.44
2018-10-01T12:56:40.821Z,100987.00
2018-10-01T12:59:09.438Z,100980.11
2018-10-01T13:01:38.121Z,100972.98
2018-10-01T13:04:06.879Z,100974.87
2018-10-01T13:06:35.649Z,100974.55
2018-10-01T13:09:04.556Z,100976.73
2018-10-01T13:11:33.195Z,100967.30
2018-10-01T13:14:01.868Z,100978.81
2018-10-01T13:16:30.489Z,100968.66
2018-10-01T13:18:59.413Z,100971.34
2018-10-01T13:21:27.981Z,100972.17
2018-10-01T13:23:56.703Z,100971.77
2018-10-01T13:26:25.481Z,100976.98
2018-10-01T13:28:54.084Z,100974.01
2018-10-01T13:31:22.756Z,100981.83
2018-10-01T13:33:51.329Z,100988.41
2018-10-01T13:36:20.156Z,100997.50
2018-10-01T13:38:48.683Z,100996.72
2018-10-01T13:41:17.272Z,101000.57
2018-10-01T13:43:45.897Z,100993.72
2018-10-01T13:46:15.411Z,101004.51
2018-10-01T13:48:44.223Z,101008.88
2018-10-01T13:51:12.893Z,101012.78
2018-10-01T13:53:41.449Z,101010.64
2018-10-01T13:56:10.099Z,101023.92
2018-10-01T13:58:38.784Z,101020.53
2018-10-01T14:01:07.571Z,101024.38
2018-10-01T14:03:36.252Z,101023.92
2018-10-01T14:06:04.930Z,101030.38
2018-10-01T14:08:33.513Z,101035.55
2018-10-01T14:11:02.837Z,101042.41
2018-10-01T14:13:31.558Z,101051.00
2018-10-01T14:16:00.327Z,101054.86
2018-10-01T14:18:28.978Z,101052.31
2018-10-01T14:20:57.784Z,101060.05
2018-10-01T14:23:26.421Z,101062.22
2018-10-01T14:25:55.042Z,101063.09
2018-10-01T14:28:23.724Z,101096.12
2018-10-01T14:30:52.539Z,101106.39
2018-10-01T14:33:21.124Z,101115.83
2018-10-01T14:35:49.764Z,101126.90
2018-10-01T14:38:18.373Z,101132.34
2018-10-01T14:40:47.167Z,101136.07
2018-10-01T14:43:15.815Z,101137.70
2018-10-01T14:45:44.475Z,101150.38
2018-10-01T14:48:13.152Z,101136.61
2018-10-01T14:50:41.807Z,101114.44
2018-10-01T14:53:10.443Z,101109.40
2018-10-01T14:55:39.153Z,101108.64
2018-10-01T14:58:07.854Z,101113.44
2018-10-01T15:00:36.490Z,101106.61
2018-10-01T15:03:05.016Z,101105.38
2018-10-01T15:05:33.593Z,101107.15
2018-10-01T15:08:02.692Z,101098.20
2018-10-01T15:10:31.482Z,101104.63
2018-10-01T15:13:00.865Z,101097.35
2018-10-01T15:15:29.512Z,101088.77
2018-10-01T15:17:58.141Z,101088.77
2018-10-01T15:20:26.890Z,101096.48
2018-10-01T15:22:55.539Z,101089.20
2018-10-01T15:25:24.203Z,101096.42
2018-10-01T15:27:52.756Z,101092.96
2018-10-01T15:30:21.359Z,101087.39
2018-10-01T15:32:49.906Z,101094.27
2018-10-01T15:35:18.589Z,101089.97
2018-10-01T15:37:47.173Z,101088.28
2018-10-01T15:40:15.792Z,101089.12
2018-10-01T15:42:44.393Z,101092.14
2018-10-01T15:45:13.131Z,101099.41
2018-10-01T15:47:41.748Z,101097.28
2018-10-01T15:50:10.287Z,101097.29
2018-10-01T15:52:39.708Z,101106.33
2018-10-01T15:55:08.287Z,101103.73
2018-10-01T15:57:36.942Z,101112.72
2018-10-01T16:00:05.856Z,101111.03
2018-10-01T16:02:34.811Z,101114.05
2018-10-01T16:05:04.400Z,101116.22
2018-10-01T16:07:33.575Z,101112.34
2018-10-01T16:10:08.807Z,101118.34
2018-10-01T16:12:37.753Z,101125.17
2018-10-01T16:15:06.412Z,101122.18
2018-10-01T16:17:35.091Z,101124.73
2018-10-01T16:20:04.401Z,101133.72
2018-10-01T16:22:33.367Z,101135.41
2018-10-01T16:25:03.379Z,101138.41
2018-10-01T16:27:32.127Z,101131.59
2018-10-01T16:30:00.830Z,101130.70
2018-10-01T16:32:29.650Z,101140.93
2018-10-01T16:34:58.986Z,101138.36
2018-10-01T16:37:27.635Z,101143.05
2018-10-01T16:39:56.435Z,101148.61
2018-10-01T16:42:25.080Z,101146.03
2018-10-01T16:44:53.687Z,101149.88
2018-10-01T16:47:22.395Z,101150.34
2018-10-01T16:49:51.021Z,101150.36
2018-10-01T16:52:19.680Z,101162.37
2018-10-01T16:54:48.197Z,101162.76
2018-10-01T16:57:17.237Z,101167.48
2018-10-01T16:59:45.825Z,101169.62
2018-10-01T17:02:14.539Z,101181.12
2018-10-01T17:04:43.225Z,101187.95
2018-10-01T17:07:11.783Z,101182.77
2018-10-01T17:09:40.403Z,101191.33
2018-10-01T17:12:08.955Z,101200.34
2018-10-01T17:14:37.684Z,101205.48
2018-10-01T17:17:06.310Z,101213.59
2018-10-01T17:19:34.954Z,101225.11
2018-10-01T17:22:03.543Z,101222.11
2018-10-01T17:24:32.136Z,101223.41
2018-10-01T17:27:00.814Z,101230.29
2018-10-01T17:29:29.571Z,101237.14
2018-10-01T17:31:58.191Z,101234.09
2018-10-01T17:34:26.796Z,101238.34
2018-10-01T17:36:55.380Z,101249.05
2018-10-01T17:39:24.094Z,101248.14
2018-10-01T17:41:52.717Z,101250.69
2018-10-01T17:44:21.348Z,101252.80
2018-10-01T17:46:50.075Z,101259.20
2018-10-01T17:49:18.897Z,101256.61
2018-10-01T17:51:47.527Z,101262.50
2018-10-01T17:54:16.198Z,101263.34
2018-10-01T17:56:44.804Z,101271.88
2018-10-01T17:59:13.540Z,101277.13
2018-10-01T18:01:42.262Z,101274.55
2018-10-01T18:04:10.975Z,101275.34
2018-10-01T18:06:39.603Z,101282.73
2018-10-01T18:09:09.993Z,101286.65
2018-10-01T18:11:38.728Z,101287.88
2018-10-01T18:14:07.997Z,101290.38
2018-10-01T18:16:36.635Z,101290.30
2018-10-01T18:19:05.502Z,101282.53
2018-10-01T18:21:34.186Z,101286.77
2018-10-01T18:24:03.629Z,101301.78
2018-10-01T18:26:32.253Z,101298.77
2018-10-01T18:29:01.680Z,101304.79
2018-10-01T18:31:30.295Z,101310.36
2018-10-01T18:33:59.148Z,101310.79
2018-10-01T18:36:27.748Z,101312.48
2018-10-01T18:38:57.306Z,101316.73
2018-10-01T18:41:25.901Z,101311.16
2018-10-01T18:43:54.613Z,101322.73
2018-10-01T18:46:23.254Z,101325.58
2018-10-01T18:48:51.849Z,101317.74
2018-10-01T18:51:20.463Z,101319.47
2018-10-01T18:53:49.216Z,101316.96
2018-10-01T18:56:17.783Z,101316.55
2018-10-01T18:58:46.400Z,101321.25
2018-10-01T19:01:15.055Z,101318.69
2018-10-01T19:03:43.758Z,101324.27
2018-10-01T19:06:12.378Z,101318.83
2018-10-01T19:08:41.145Z,101323.96
2018-10-01T19:11:09.797Z,101325.64
2018-10-01T19:13:38.583Z,101324.36
2018-10-01T19:16:07.384Z,101322.92
2018-10-01T19:18:36.220Z,101317.86
2018-10-01T19:21:04.988Z,101318.22
2018-10-01T19:23:33.663Z,101316.52
2018-10-01T19:26:03.016Z,101320.75
2018-10-01T19:28:31.688Z,101320.72
2018-10-01T19:31:00.628Z,101326.72
2018-10-01T19:33:29.717Z,101323.70
2018-10-01T19:35:58.410Z,101333.19
2018-10-01T19:38:27.094Z,101335.45
2018-10-01T19:40:55.596Z,101339.31
2018-10-01T19:43:24.371Z,101346.56
2018-10-01T19:45:52.964Z,101343.45
2018-10-01T19:48:21.630Z,101346.08
2018-10-01T19:50:50.258Z,101347.09
2018-10-01T19:53:18.951Z,101350.39
2018-10-01T19:55:47.915Z,101353.95
2018-10-01T19:58:16.580Z,101348.89
2018-10-01T20:00:45.359Z,101356.52
2018-10-01T20:03:14.059Z,101351.33
2018-10-01T20:05:42.727Z,101357.58
2018-10-01T20:08:11.356Z,101354.59
2018-10-01T20:10:39.919Z,101350.81
2018-10-01T20:13:08.551Z,101345.65
2018-10-01T20:15:37.156Z,101354.11
2018-10-01T20:18:05.736Z,101356.50
2018-10-01T20:20:34.360Z,101359.44
2018-10-01T20:23:03.603Z,101356.05
2018-10-01T20:25:32.230Z,101364.75
2018-10-01T20:28:00.878Z,101363.12
2018-10-01T20:30:29.507Z,101369.91
2018-10-01T20:32:58.090Z,101370.84
2018-10-01T20:35:26.813Z,101367.52
2018-10-01T20:37:55.414Z,101361.66
2018-10-01T20:40:23.980Z,101369.41
2018-10-01T20:42:52.582Z,101368.96
2018-10-01T20:45:21.160Z,101365.88
2018-10-01T20:47:49.996Z,101376.95
2018-10-01T20:50:18.634Z,101370.43
2018-10-01T20:52:47.329Z,101382.00
2018-10-01T20:55:15.960Z,101371.23
2018-10-01T20:57:44.506Z,101365.27
2018-10-01T21:00:13.008Z,101366.13
2018-10-01T21:02:41.578Z,101372.09
2018-10-01T21:05:10.245Z,101358.86
2018-10-01T21:07:38.821Z,101363.98
2018-10-01T21:10:07.461Z,101363.50
2018-10-01T21:12:36.008Z,101360.45
2018-10-01T21:15:04.761Z,101374.48
2018-10-01T21:17:33.302Z,101367.52
2018-10-01T21:20:01.928Z,101368.86
2018-10-01T21:22:30.618Z,101367.62
2018-10-01T21:24:59.326Z,101369.77
2018-10-01T21:27:27.909Z,101366.41
2018-10-01T21:29:56.502Z,101361.70
2018-10-01T21:32:25.017Z,101365.92
2018-10-01T21:34:53.614Z,101366.34
2018-10-01T21:37:22.208Z,101368.52
2018-10-01T21:39:57.937Z,101369.25
2018-10-01T21:42:26.808Z,101373.84
2018-10-01T21:44:55.416Z,101369.55
2018-10-01T21:47:24.240Z,101371.12
2018-10-01T21:49:52.959Z,101364.77
2018-10-01T21:52:21.563Z,101370.22
2018-10-01T21:54:50.210Z,101375.23
2018-10-01T21:57:19.018Z,101378.28
2018-10-01T21:59:47.946Z,101374.41
2018-10-01T22:02:16.540Z,101373.23
2018-10-01T22:04:45.163Z,101375.84
2018-10-01T22:07:14.440Z,101378.74
2018-10-01T22:09:43.011Z,101375.76
2018-10-01T22:12:11.616Z,101375.64
2018-10-01T22:14:40.210Z,101381.19
2018-10-01T22:17:08.997Z,101374.31
2018-10-01T22:19:37.498Z,101379.94
2018-10-01T22:22:06.146Z,101384.07
2018-10-01T22:24:34.734Z,101385.73
2018-10-01T22:27:03.514Z,101386.92
2018-10-01T22:29:32.120Z,101383.21
2018-10-01T22:32:00.712Z,101377.13
2018-10-01T22:34:29.314Z,101368.17
2018-10-01T22:36:58.003Z,101371.52
2018-10-01T22:39:26.542Z,101370.31
2018-10-01T22:41:55.301Z,101367.00
2018-10-01T22:44:23.930Z,101367.79
2018-10-01T22:46:52.540Z,101369.78
2018-10-01T22:49:21.131Z,101365.23
2018-10-01T22:51:49.845Z,101365.52
2018-10-01T22:54:18.397Z,101363.33
2018-10-01T22:56:47.032Z,101360.77
2018-10-01T22:59:15.592Z,101353.08
2018-10-01T23:01:44.194Z,101362.00
2018-10-01T23:04:12.900Z,101365.60
2018-10-01T23:06:41.450Z,101363.50
2018-10-01T23:09:10.310Z,101365.65
2018-10-01T23:11:39.023Z,101366.52
2018-10-01T23:14:07.739Z,101361.76
2018-10-01T23:16:36.322Z,101380.48
2018-10-01T23:19:04.992Z,101372.83
2018-10-01T23:21:33.743Z,101376.14
2018-10-01T23:24:03.422Z,101376.09
2018-10-01T23:26:32.098Z,101380.34
2018-10-01T23:29:00.693Z,101374.73
2018-10-01T23:31:29.295Z,101381.95
2018-10-01T23:33:57.868Z,101377.33
2018-10-01T23:36:26.457Z,101380.43
2018-10-01T23:38:55.074Z,101383.13
2018-10-01T23:41:23.639Z,101370.36
2018-10-01T23:43:52.150Z,101378.29
2018-10-01T23:46:20.723Z,101373.41
2018-10-01T23:48:49.425Z,101370.93
2018-10-01T23:51:18.018Z,101369.66
2018-10-01T23:53:46.596Z,101374.77
2018-10-01T23:56:15.169Z,101380.72
2018-10-01T23:58:43.992Z,101368.73
